Time;durP1;ratioP1;P1;durP2;ratioP2;P2;SDS_P1;SDS_P2;PMS_P1;PMS_P2;Temp;Humidity;BMP_temperature;BMP_pressure;BME280_temperature;BME280_humidity;BME280_pressure;Samples;Min_cycle;Max_cycle;Signal;HPM_P1;HPM_P2
2021/07/28 00:02:07;;;;;;;13.97;9.50;;;;;;;17.34;100.00;100429.75;5105664;28;20186;-69
2021/07/28 00:04:40;;;;;;;13.93;9.50;;;;;;;17.34;100.00;100427.06;5095353;28;20201;-69
2021/07/28 00:07:06;;;;;;;14.10;10.20;;;;;;;17.34;100.00;100429.75;5078553;28;20563;-69
2021/07/28 00:09:31;;;;;;;17.50;10.47;;;;;;;17.35;100.00;100426.94;5094296;28;20178;-69
2021/07/28 00:11:57;;;;;;;16.37;11.10;;;;;;;17.38;100.00;100423.09;5095161;28;20171;-69
2021/07/28 00:14:22;;;;;;;16.60;11.13;;;;;;;17.33;100.00;100423.50;5094220;28;20710;-69
2021/07/28 00:16:47;;;;;;;12.33;9.77;;;;;;;17.32;100.00;100416.41;5095300;28;20170;-69
2021/07/28 00:19:22;;;;;;;16.17;10.17;;;;;;;17.30;100.00;100414.84;5094904;28;20205;-69
2021/07/28 00:24:35;;;;;;;15.80;10.23;;;;;;;17.20;100.00;100420.19;5095119;28;20216;-69
2021/07/28 00:27:01;;;;;;;11.53;9.07;;;;;;;17.02;100.00;100421.75;5094884;28;20257;-69
2021/07/28 00:29:30;;;;;;;16.03;9.63;;;;;;;16.94;100.00;100417.03;5095018;28;20220;-69
2021/07/28 00:31:56;;;;;;;19.33;13.37;;;;;;;16.92;100.00;100405.53;5094756;28;20198;-69
2021/07/28 00:34:21;;;;;;;16.03;10.53;;;;;;;17.06;100.00;100410.56;5093449;28;20292;-69
2021/07/28 00:36:47;;;;;;;13.10;10.10;;;;;;;17.18;100.00;100409.53;5094985;28;20182;-69
2021/07/28 00:39:12;;;;;;;17.27;12.13;;;;;;;17.30;100.00;100406.75;5093326;28;20205;-69
2021/07/28 00:41:41;;;;;;;19.13;12.60;;;;;;;17.31;100.00;100413.84;5093448;28;20216;-69
2021/07/28 00:44:06;;;;;;;14.53;11.47;;;;;;;17.21;100.00;100407.56;5093353;28;20235;-69
2021/07/28 00:46:32;;;;;;;11.10;10.00;;;;;;;17.21;100.00;100397.63;5093264;28;20174;-69
2021/07/28 00:48:57;;;;;;;15.07;10.53;;;;;;;17.29;100.00;100391.53;5093217;28;20170;-69
2021/07/28 00:51:22;;;;;;;14.90;9.27;;;;;;;17.38;100.00;100394.28;5094869;28;20672;-69
2021/07/28 00:53:48;;;;;;;14.43;8.23;;;;;;;17.32;100.00;100394.81;5094288;28;20535;-69
2021/07/28 00:56:13;;;;;;;14.50;9.37;;;;;;;17.32;100.00;100396.66;5094787;28;20253;-69
2021/07/28 00:58:40;;;;;;;11.03;9.40;;;;;;;17.25;100.00;100393.66;5094501;28;20194;-69
2021/07/28 01:01:05;;;;;;;11.00;8.27;;;;;;;17.19;100.00;100394.19;5093158;28;20201;-69
2021/07/28 01:03:31;;;;;;;13.83;10.00;;;;;;;17.16;100.00;100400.72;5092894;28;20225;-69
2021/07/28 01:05:57;;;;;;;14.93;10.37;;;;;;;17.04;100.00;100393.69;5092730;28;20174;-69
2021/07/28 01:08:22;;;;;;;13.53;10.20;;;;;;;16.97;100.00;100400.59;5092737;28;20538;-69
2021/07/28 01:10:48;;;;;;;21.83;12.83;;;;;;;17.00;100.00;100404.88;5092705;28;20190;-68
2021/07/28 01:13:15;;;;;;;17.13;12.13;;;;;;;16.97;100.00;100405.13;5093790;28;20634;-69
2021/07/28 01:15:42;;;;;;;21.37;12.90;;;;;;;16.96;100.00;100401.59;5094490;28;20177;-69
2021/07/28 01:18:09;;;;;;;14.20;10.83;;;;;;;17.00;100.00;100396.78;5093768;28;20226;-69
2021/07/28 01:20:37;;;;;;;15.37;11.83;;;;;;;17.05;100.00;100398.09;5092622;28;20162;-69
2021/07/28 01:23:10;;;;;;;20.27;12.50;;;;;;;17.01;100.00;100393.94;5094033;28;20174;-69
2021/07/28 01:25:35;;;;;;;14.53;9.83;;;;;;;17.02;100.00;100397.50;5092225;28;20201;-69
2021/07/28 01:28:02;;;;;;;14.40;11.10;;;;;;;16.90;100.00;100396.72;5093744;28;20171;-69
2021/07/28 01:30:28;;;;;;;14.20;10.63;;;;;;;16.85;100.00;100390.88;5093696;28;20166;-69
2021/07/28 01:32:53;;;;;;;14.87;9.93;;;;;;;16.89;100.00;100392.31;5092441;28;20181;-69
2021/07/28 01:35:19;;;;;;;10.90;9.70;;;;;;;16.78;100.00;100382.47;5092444;28;20232;-69
2021/07/28 01:37:45;;;;;;;10.73;8.87;;;;;;;16.87;100.00;100383.50;5092371;28;20204;-69
2021/07/28 01:40:11;;;;;;;11.20;7.93;;;;;;;16.98;100.00;100379.88;5093712;28;20181;-69
2021/07/28 01:42:43;;;;;;;9.20;8.10;;;;;;;17.22;100.00;100395.78;5093418;28;20185;-69
2021/07/28 01:45:10;;;;;;;8.70;7.80;;;;;;;17.34;100.00;100387.44;5092116;28;20202;-69
2021/07/28 01:47:35;;;;;;;14.00;8.17;;;;;;;17.34;100.00;100386.59;5093331;28;20206;-69
2021/07/28 01:50:01;;;;;;;9.83;7.53;;;;;;;17.36;100.00;100381.91;5092424;28;20257;-69
2021/07/28 01:52:26;;;;;;;9.17;7.43;;;;;;;17.45;100.00;100379.25;5093527;28;20185;-69
2021/07/28 01:54:51;;;;;;;9.73;7.20;;;;;;;17.45;100.00;100371.16;5093240;28;20552;-69
2021/07/28 01:57:16;;;;;;;9.60;7.10;;;;;;;17.48;100.00;100372.75;5093467;28;20631;-69
2021/07/28 01:59:42;;;;;;;10.17;7.80;;;;;;;17.56;100.00;100380.16;5092066;28;20212;-69
2021/07/28 02:02:07;;;;;;;9.53;7.03;;;;;;;17.60;100.00;100368.97;5093468;28;20182;-69
2021/07/28 02:04:32;;;;;;;8.27;7.13;;;;;;;17.58;98.62;100368.25;5093094;28;20571;-69
2021/07/28 02:06:58;;;;;;;8.33;7.50;;;;;;;17.59;99.17;100369.09;5093133;28;20178;-69
2021/07/28 02:09:23;;;;;;;7.87;7.17;;;;;;;17.57;99.46;100371.09;5093182;28;20634;-69
2021/07/28 02:11:48;;;;;;;9.73;7.47;;;;;;;17.57;98.77;100369.25;5093119;28;20208;-69
2021/07/28 02:14:13;;;;;;;7.30;6.37;;;;;;;17.57;98.42;100363.84;5091780;28;20213;-70
2021/07/28 02:16:39;;;;;;;9.30;7.27;;;;;;;17.57;97.13;100371.09;5092409;28;20639;-69
2021/07/28 02:19:04;;;;;;;8.70;7.10;;;;;;;17.37;97.81;100380.94;5093105;28;20193;-69
2021/07/28 02:21:29;;;;;;;7.93;6.97;;;;;;;17.40;96.29;100386.06;5092052;28;20515;-69
2021/07/28 02:23:55;;;;;;;7.83;6.67;;;;;;;17.49;96.21;100390.66;5092888;28;20220;-69
2021/07/28 02:26:20;;;;;;;6.93;6.30;;;;;;;17.75;96.21;100394.59;5091885;28;20181;-69
2021/07/28 02:28:45;;;;;;;7.60;6.90;;;;;;;17.83;95.24;100391.19;5091848;28;20163;-69
2021/07/28 02:31:10;;;;;;;11.53;8.03;;;;;;;17.90;96.94;100375.31;5091835;28;20661;-69
2021/07/28 02:33:36;;;;;;;11.57;7.63;;;;;;;17.81;99.45;100383.25;5091739;28;20535;-69
2021/07/28 02:36:01;;;;;;;8.30;7.50;;;;;;;17.72;99.76;100386.78;5094415;28;20216;-69
2021/07/28 02:38:26;;;;;;;12.57;8.60;;;;;;;17.66;98.98;100381.03;5097263;28;20235;-69
2021/07/28 02:40:52;;;;;;;9.67;8.07;;;;;;;17.75;100.00;100386.50;5097202;28;20178;-69
2021/07/28 02:43:17;;;;;;;8.80;7.90;;;;;;;17.91;99.90;100377.03;5095606;28;20226;-69
2021/07/28 02:45:42;;;;;;;11.30;8.70;;;;;;;17.89;100.00;100379.03;5097079;28;20283;-69
2021/07/28 02:48:08;;;;;;;10.93;8.40;;;;;;;17.89;100.00;100385.28;5096948;28;20538;-69
2021/07/28 02:50:33;;;;;;;11.07;8.63;;;;;;;17.90;100.00;100386.97;5096777;28;20650;-69
2021/07/28 02:52:58;;;;;;;9.50;8.57;;;;;;;17.88;100.00;100374.63;5097173;28;20213;-69
2021/07/28 02:55:23;;;;;;;10.47;9.20;;;;;;;17.73;100.00;100368.75;5096480;28;20194;-69
2021/07/28 02:57:49;;;;;;;13.83;9.37;;;;;;;17.73;100.00;100366.03;5095313;28;20189;-69
2021/07/28 03:00:16;;;;;;;10.30;9.17;;;;;;;17.68;100.00;100352.09;5096588;28;20166;-69
2021/07/28 03:02:41;;;;;;;12.20;8.40;;;;;;;17.63;100.00;100355.19;5095409;28;20228;-69
2021/07/28 03:05:07;;;;;;;10.13;9.20;;;;;;;17.55;100.00;100371.22;5095189;28;20190;-69
2021/07/28 03:07:33;;;;;;;9.93;8.90;;;;;;;17.58;100.00;100372.78;5097191;28;20174;-69
2021/07/28 03:09:59;;;;;;;10.47;8.80;;;;;;;17.58;100.00;100373.66;5096772;28;20308;-69
2021/07/28 03:12:24;;;;;;;9.53;8.53;;;;;;;17.54;100.00;100374.91;5096195;28;20640;-69
2021/07/28 03:14:49;;;;;;;11.87;9.80;;;;;;;17.58;100.00;100373.66;5099668;28;20213;-69
2021/07/28 03:17:16;;;;;;;13.13;8.57;;;;;;;17.58;100.00;100370.94;5096328;28;20572;-69
2021/07/28 03:19:41;;;;;;;9.57;8.67;;;;;;;17.45;100.00;100373.84;5096075;28;20194;-69
2021/07/28 03:22:07;;;;;;;11.70;9.40;;;;;;;17.48;100.00;100372.75;5096512;28;20170;-69
2021/07/28 03:24:32;;;;;;;9.73;8.73;;;;;;;17.35;100.00;100366.72;5096064;28;20194;-69
2021/07/28 03:26:57;;;;;;;9.43;8.53;;;;;;;17.36;100.00;100371.13;5096237;28;20196;-69
2021/07/28 03:29:23;;;;;;;9.10;8.20;;;;;;;17.33;100.00;100369.56;5096011;28;20175;-69
2021/07/28 03:31:49;;;;;;;11.87;8.77;;;;;;;17.35;100.00;100364.03;5094743;28;20209;-69
2021/07/28 03:34:15;;;;;;;10.30;8.50;;;;;;;17.38;100.00;100371.84;5095799;28;20190;-69
2021/07/28 03:36:40;;;;;;;8.83;7.93;;;;;;;17.44;100.00;100372.16;5077644;28;20656;-69
2021/07/28 03:39:06;;;;;;;10.03;8.17;;;;;;;17.49;100.00;100366.38;5096021;28;20245;-69
2021/07/28 03:41:31;;;;;;;9.23;8.37;;;;;;;17.48;100.00;100354.72;5095962;28;20216;-69
2021/07/28 03:43:56;;;;;;;12.50;8.57;;;;;;;17.50;100.00;100370.78;5096157;28;20194;-68
2021/07/28 03:46:21;;;;;;;9.27;7.70;;;;;;;17.53;100.00;100358.84;5095632;28;20189;-69
2021/07/28 03:48:47;;;;;;;8.47;7.67;;;;;;;17.56;100.00;100358.59;5095484;28;20174;-69
2021/07/28 03:51:12;;;;;;;8.80;7.90;;;;;;;17.60;99.75;100347.38;5095909;28;20171;-69
2021/07/28 03:53:38;;;;;;;8.33;7.43;;;;;;;17.63;99.62;100343.53;5095350;28;20284;-69
2021/07/28 03:56:03;;;;;;;8.70;7.80;;;;;;;17.63;99.11;100344.41;5094340;28;20178;-67
2021/07/28 03:58:28;;;;;;;8.57;7.77;;;;;;;17.61;99.10;100335.59;5095764;28;20226;-69
2021/07/28 04:00:54;;;;;;;9.93;8.27;;;;;;;17.60;98.43;100341.97;5094192;28;20582;-69
2021/07/28 04:03:19;;;;;;;8.50;7.60;;;;;;;17.66;98.24;100341.41;5095201;28;20174;-69
2021/07/28 04:05:44;;;;;;;7.87;7.17;;;;;;;17.79;97.12;100350.13;5094000;28;20182;-69
2021/07/28 04:08:09;;;;;;;9.90;7.60;;;;;;;17.85;96.54;100361.41;5095548;28;20681;-69
2021/07/28 04:10:37;;;;;;;9.13;7.37;;;;;;;18.06;96.39;100365.69;5095430;28;20182;-70
2021/07/28 04:13:02;;;;;;;8.67;7.37;;;;;;;18.16;94.55;100372.94;5094257;28;20250;-69
2021/07/28 04:15:28;;;;;;;9.40;7.63;;;;;;;18.36;94.61;100372.81;5094605;22;20231;-69
2021/07/28 04:17:53;;;;;;;9.87;7.87;;;;;;;18.37;94.14;100370.97;5090785;28;20589;-70
2021/07/28 04:20:18;;;;;;;10.67;7.90;;;;;;;18.41;92.83;100372.38;5090928;28;20178;-68
2021/07/28 04:22:43;;;;;;;9.87;7.90;;;;;;;18.42;91.88;100377.63;5075152;28;20266;-69
2021/07/28 04:25:10;;;;;;;11.80;7.90;;;;;;;18.53;90.19;100376.63;5075239;28;20195;-69
2021/07/28 04:27:35;;;;;;;10.93;8.73;;;;;;;18.50;89.20;100376.06;5075158;28;20217;-69
2021/07/28 04:30:00;;;;;;;9.60;8.27;;;;;;;18.60;88.61;100379.66;5074885;28;20198;-68
2021/07/28 04:32:26;;;;;;;8.77;7.87;;;;;;;18.57;88.58;100378.06;5073402;28;20661;-70
2021/07/28 04:34:51;;;;;;;8.70;7.23;;;;;;;18.51;89.75;100384.03;5073423;28;20194;-70
2021/07/28 04:37:17;;;;;;;8.77;7.87;;;;;;;18.46;90.15;100382.75;5073474;28;20178;-70
2021/07/28 04:39:42;;;;;;;8.73;7.83;;;;;;;18.65;88.88;100390.91;5073243;28;20199;-70
2021/07/28 04:42:08;;;;;;;10.93;7.73;;;;;;;18.60;88.63;100390.44;5056541;28;20179;-69
2021/07/28 04:44:33;;;;;;;8.60;7.70;;;;;;;18.65;87.64;100391.75;5073162;28;20210;-68
2021/07/28 04:46:58;;;;;;;10.43;7.77;;;;;;;18.78;86.06;100386.03;5075008;28;20183;-69
2021/07/28 04:49:23;;;;;;;9.57;7.70;;;;;;;18.78;86.33;100386.03;5074608;28;20177;-69
2021/07/28 04:51:49;;;;;;;8.93;8.03;;;;;;;18.80;86.20;100377.78;5056295;28;20182;-69
2021/07/28 04:54:14;;;;;;;9.40;7.40;;;;;;;18.86;86.43;100375.34;5072955;28;20609;-69
2021/07/28 04:56:40;;;;;;;9.50;7.47;;;;;;;18.96;85.58;100368.09;5056161;28;20183;-69
2021/07/28 04:59:05;;;;;;;10.30;7.30;;;;;;;19.10;84.49;100379.44;5072222;28;20232;-69
2021/07/28 05:01:30;;;;;;;8.43;7.63;;;;;;;19.14;84.24;100384.41;5072831;28;20175;-69
2021/07/28 05:03:56;;;;;;;8.23;7.43;;;;;;;19.27;83.15;100386.78;5072759;28;20206;-69
2021/07/28 05:06:21;;;;;;;8.63;7.30;;;;;;;19.35;83.13;100389.63;5074528;28;20186;-69
2021/07/28 05:08:46;;;;;;;8.60;7.53;;;;;;;19.45;82.20;100384.16;5074220;28;20623;-69
2021/07/28 05:11:11;;;;;;;8.83;7.93;;;;;;;19.46;81.51;100385.84;5073702;28;20171;-69
2021/07/28 05:13:37;;;;;;;10.60;9.03;;;;;;;19.45;81.21;100394.97;5055834;28;20236;-68
2021/07/28 05:16:02;;;;;;;8.83;7.17;;;;;;;19.32;79.48;100381.75;5073707;28;20293;-69
2021/07/28 05:18:27;;;;;;;10.43;8.63;;;;;;;19.33;80.61;100387.06;5073909;28;20199;-68
2021/07/28 05:20:53;;;;;;;12.97;8.70;;;;;;;19.35;80.61;100392.31;5073680;28;20592;-69
2021/07/28 05:23:18;;;;;;;10.50;7.03;;;;;;;19.26;79.70;100391.31;5073625;28;20543;-69
2021/07/28 05:25:43;;;;;;;12.07;8.67;;;;;;;19.34;80.98;100393.31;5072381;28;20190;-69
2021/07/28 05:28:09;;;;;;;12.70;9.20;;;;;;;19.29;80.66;100401.00;5072477;28;20182;-69
2021/07/28 05:30:34;;;;;;;9.13;7.73;;;;;;;19.11;80.67;100406.34;5072684;28;20229;-69
2021/07/28 05:33:00;;;;;;;8.47;7.23;;;;;;;19.09;80.98;100404.78;5073633;28;20225;-69
2021/07/28 05:35:25;;;;;;;9.83;6.97;;;;;;;19.20;81.82;100413.56;5072164;28;20199;-68
2021/07/28 05:38:01;;;;;;;8.53;6.97;;;;;;;19.03;82.43;100417.03;5072121;28;20175;-69
2021/07/28 05:40:26;;;;;;;10.77;7.37;;;;;;;19.07;83.01;100415.75;5072147;28;20175;-70
2021/07/28 05:42:52;;;;;;;9.03;7.27;;;;;;;19.01;84.12;100419.88;5073331;28;20182;-68
2021/07/28 05:45:17;;;;;;;11.43;7.43;;;;;;;18.96;84.57;100419.47;5072105;28;20228;-68
2021/07/28 05:47:45;;;;;;;9.23;7.40;;;;;;;19.07;83.27;100418.44;5073216;28;20190;-69
2021/07/28 05:50:11;;;;;;;11.33;8.07;;;;;;;19.04;82.82;100414.19;5073051;28;20163;-70
2021/07/28 05:52:36;;;;;;;8.93;6.83;;;;;;;19.08;83.24;100416.59;5073107;28;20175;-70
2021/07/28 05:55:02;;;;;;;7.73;6.87;;;;;;;19.17;82.57;100408.44;5071953;28;20202;-70
2021/07/28 05:57:27;;;;;;;8.57;7.03;;;;;;;19.21;82.00;100417.13;5073185;28;20539;-70
2021/07/28 05:59:52;;;;;;;9.87;6.90;;;;;;;19.36;81.09;100418.38;5072935;28;20269;-69
2021/07/28 06:02:17;;;;;;;8.13;7.23;;;;;;;19.36;80.40;100403.00;5072406;28;20171;-69
2021/07/28 06:04:43;;;;;;;10.60;7.77;;;;;;;19.44;80.37;100399.53;5073457;28;20206;-69
2021/07/28 06:07:09;;;;;;;12.10;7.77;;;;;;;19.58;79.42;100403.63;5073107;28;20643;-69
2021/07/28 06:09:34;;;;;;;9.23;7.70;;;;;;;19.61;79.21;100390.66;5073345;28;20224;-69
2021/07/28 06:12:00;;;;;;;15.67;7.30;;;;;;;19.43;78.96;100384.31;5073388;28;20175;-68
2021/07/28 06:14:25;;;;;;;9.13;6.70;;;;;;;19.42;79.13;100388.00;5071981;28;20229;-69
2021/07/28 06:16:50;;;;;;;12.90;7.53;;;;;;;19.59;78.43;100389.09;5073395;28;20193;-69
2021/07/28 06:19:16;;;;;;;16.43;7.73;;;;;;;19.45;79.39;100389.56;5073073;28;20260;-69
2021/07/28 06:21:41;;;;;;;10.37;7.20;;;;;;;19.61;78.43;100398.78;5071542;28;20179;-69
2021/07/28 06:24:06;;;;;;;9.00;6.80;;;;;;;19.65;77.88;100399.31;5071556;28;20210;-69
2021/07/28 06:26:31;;;;;;;11.50;6.30;;;;;;;19.49;80.70;100401.81;5071809;28;20174;-69
2021/07/28 06:28:57;;;;;;;8.10;6.80;;;;;;;19.65;79.59;100408.28;5072828;28;20179;-70
2021/07/28 06:31:22;;;;;;;9.03;7.40;;;;;;;19.58;79.59;100403.63;5071670;28;20175;-69
2021/07/28 06:33:47;;;;;;;9.23;7.97;;;;;;;19.67;79.03;100403.59;5072973;28;20183;-69
2021/07/28 06:36:13;;;;;;;8.20;6.73;;;;;;;19.69;78.38;100400.72;5072886;28;20582;-69
2021/07/28 06:38:38;;;;;;;11.57;9.10;;;;;;;19.87;77.00;100401.63;5073099;28;20206;-69
2021/07/28 06:41:03;;;;;;;10.10;9.00;;;;;;;19.78;76.13;100397.13;5073389;28;20177;-70
2021/07/28 06:43:29;;;;;;;10.17;6.90;;;;;;;19.72;76.81;100408.56;5072677;28;20590;-69
2021/07/28 06:45:58;;;;;;;9.17;7.37;;;;;;;19.89;76.18;100407.75;5072475;28;20558;-69
2021/07/28 06:48:23;;;;;;;10.13;6.97;;;;;;;19.55;77.18;100406.66;5072487;28;20614;-70
2021/07/28 06:50:48;;;;;;;10.93;7.57;;;;;;;19.63;77.07;100406.75;5072431;28;20237;-69
2021/07/28 06:53:13;;;;;;;7.73;6.30;;;;;;;19.90;76.56;100400.47;5072943;28;20175;-69
2021/07/28 06:55:39;;;;;;;9.07;7.40;;;;;;;20.06;75.96;100410.63;5072373;28;20199;-69
2021/07/28 06:58:04;;;;;;;10.77;8.37;;;;;;;20.17;75.37;100408.59;5072260;28;20175;-69
2021/07/28 07:00:29;;;;;;;9.73;7.13;;;;;;;20.16;75.49;100411.47;5072597;28;20566;-70
2021/07/28 07:03:00;;;;;;;8.80;7.03;;;;;;;20.30;75.30;100409.06;5072536;28;20179;-69
2021/07/28 07:05:26;;;;;;;10.47;6.97;;;;;;;20.28;75.31;100415.63;5072805;28;20275;-70
2021/07/28 07:07:51;;;;;;;7.93;6.53;;;;;;;20.08;74.91;100414.09;5054674;28;20225;-70
2021/07/28 07:10:17;;;;;;;7.83;6.90;;;;;;;19.93;75.36;100411.88;5055059;28;20176;-70
2021/07/28 07:12:42;;;;;;;10.13;7.07;;;;;;;19.64;77.73;100420.13;5071524;28;20202;-70
2021/07/28 07:15:08;;;;;;;7.77;6.97;;;;;;;19.39;77.90;100425.34;5072398;28;20215;-69
2021/07/28 07:17:33;;;;;;;6.93;6.23;;;;;;;19.36;77.83;100421.09;5071889;28;20233;-70
2021/07/28 07:19:58;;;;;;;8.63;6.57;;;;;;;19.18;79.38;100425.53;5071672;28;20276;-69
2021/07/28 07:22:23;;;;;;;8.40;7.00;;;;;;;19.14;79.95;100429.53;5073558;28;20175;-69
2021/07/28 07:24:49;;;;;;;8.43;6.40;;;;;;;18.97;80.56;100433.84;5075844;28;20260;-69
2021/07/28 07:27:14;;;;;;;8.90;6.23;;;;;;;19.01;79.59;100430.72;5057907;28;20179;-70
2021/07/28 07:29:39;;;;;;;8.63;6.77;;;;;;;19.18;78.44;100428.25;5075430;28;20197;-70
2021/07/28 07:32:05;;;;;;;11.80;7.73;;;;;;;19.32;77.09;100427.75;5076600;28;20175;-69
2021/07/28 07:34:30;;;;;;;9.23;6.50;;;;;;;19.66;76.19;100433.50;5076081;28;20202;-69
2021/07/28 07:36:56;;;;;;;10.10;6.47;;;;;;;19.76;75.74;100428.94;5075868;28;20179;-69
2021/07/28 07:39:21;;;;;;;7.43;6.00;;;;;;;19.84;73.89;100428.19;5075524;28;20264;-69
2021/07/28 07:41:46;;;;;;;7.13;5.80;;;;;;;20.00;73.24;100428.34;5074389;28;20265;-69
2021/07/28 07:44:12;;;;;;;6.40;5.70;;;;;;;19.84;73.32;100430.88;5057468;28;20202;-69
2021/07/28 07:46:37;;;;;;;5.77;5.10;;;;;;;19.49;75.79;100424.31;5075478;28;20205;-68
2021/07/28 07:49:02;;;;;;;5.37;4.87;;;;;;;19.83;73.78;100426.47;5075533;28;20174;-69
2021/07/28 07:51:30;;;;;;;6.27;5.37;;;;;;;20.10;72.64;100426.47;5075558;28;20178;-69
2021/07/28 07:53:55;;;;;;;5.03;4.20;;;;;;;20.80;70.23;100427.50;5074064;28;20199;-69
2021/07/28 07:56:20;;;;;;;6.37;4.70;;;;;;;21.19;67.40;100428.00;5075467;28;20182;-69
2021/07/28 07:58:46;;;;;;;7.37;5.40;;;;;;;20.92;68.48;100422.72;5075334;28;20195;-69
2021/07/28 08:01:12;;;;;;;5.60;4.17;;;;;;;20.46;69.01;100423.81;5075590;28;20171;-69
2021/07/28 08:03:41;;;;;;;7.27;4.53;;;;;;;20.31;70.08;100418.03;5073740;28;20695;-69
2021/07/28 08:06:08;;;;;;;7.33;5.10;;;;;;;20.64;69.43;100421.94;5075263;28;20175;-69
2021/07/28 08:08:34;;;;;;;7.20;4.20;;;;;;;20.38;67.35;100416.41;5074114;28;20184;-69
2021/07/28 08:11:04;;;;;;;5.00;4.50;;;;;;;20.59;69.11;100418.84;5073845;28;20175;-69
2021/07/28 08:13:30;;;;;;;5.77;5.13;;;;;;;20.80;68.13;100419.38;5074038;28;20574;-69
2021/07/28 08:15:55;;;;;;;7.03;5.20;;;;;;;20.92;67.61;100414.56;5075345;28;20211;-69
2021/07/28 08:18:20;;;;;;;5.67;5.07;;;;;;;20.52;69.26;100405.09;5075090;28;20198;-69
2021/07/28 08:20:47;;;;;;;6.87;5.00;;;;;;;20.72;68.03;100400.31;5073861;28;20174;-67
2021/07/28 08:23:14;;;;;;;6.97;5.13;;;;;;;20.48;70.00;100400.13;5075256;28;20670;-70
2021/07/28 08:25:40;;;;;;;6.70;5.50;;;;;;;19.97;71.00;100397.00;5075412;28;20191;-69
2021/07/28 08:28:05;;;;;;;10.57;5.47;;;;;;;20.38;69.66;100399.28;5074768;28;20179;-69
2021/07/28 08:30:30;;;;;;;6.73;5.00;;;;;;;20.84;67.53;100400.94;5075838;28;20508;-69
2021/07/28 08:32:55;;;;;;;5.53;4.97;;;;;;;20.78;68.12;100410.53;5074737;28;20524;-69
2021/07/28 08:35:21;;;;;;;5.30;4.80;;;;;;;20.48;69.10;100406.41;5074379;28;20251;-69
2021/07/28 08:37:46;;;;;;;6.10;5.50;;;;;;;20.83;65.96;100408.22;5075114;28;20183;-69
2021/07/28 08:40:14;;;;;;;6.00;5.20;;;;;;;20.89;66.17;100409.47;5075252;28;20203;-68
2021/07/28 08:42:41;;;;;;;5.47;4.53;;;;;;;20.31;67.63;100401.78;5074063;28;20181;-69
2021/07/28 08:45:08;;;;;;;5.43;4.40;;;;;;;20.30;66.44;100392.78;5074992;28;20249;-68
2021/07/28 08:47:37;;;;;;;5.30;4.20;;;;;;;20.34;66.27;100384.34;5073593;28;20195;-71
2021/07/28 08:50:06;;;;;;;5.37;3.80;;;;;;;21.01;63.03;100393.78;5074576;28;20171;-68
2021/07/28 08:52:35;;;;;;;4.23;3.23;;;;;;;21.28;61.83;100393.66;5073670;28;20183;-69
2021/07/28 08:55:02;;;;;;;4.20;3.20;;;;;;;21.76;60.71;100392.19;5073889;28;20222;-70
2021/07/28 08:57:28;;;;;;;3.70;3.23;;;;;;;22.15;59.18;100387.91;5074915;28;20171;-69
2021/07/28 08:59:57;;;;;;;6.63;3.70;;;;;;;22.26;59.86;100394.91;5056694;28;20195;-69
2021/07/28 09:02:22;;;;;;;5.43;3.90;;;;;;;22.63;58.42;100390.88;5074580;28;20258;-69
2021/07/28 09:04:48;;;;;;;4.20;3.73;;;;;;;21.66;61.13;100394.19;5073027;28;20241;-68
2021/07/28 09:07:14;;;;;;;4.53;3.67;;;;;;;22.01;61.76;100407.56;5074808;28;20531;-69
2021/07/28 09:09:52;;;;;;;4.03;3.50;;;;;;;21.61;61.42;100401.97;5074308;28;20186;-69
2021/07/28 09:12:18;;;;;;;4.57;4.17;;;;;;;20.76;65.66;100393.56;5074107;28;20179;-69
2021/07/28 09:14:57;;;;;;;4.70;3.70;;;;;;;20.87;65.17;100396.06;5074015;28;20214;-69
2021/07/28 09:17:26;;;;;;;5.43;4.73;;;;;;;21.74;63.29;100402.38;5074284;28;20248;-68
2021/07/28 09:19:52;;;;;;;4.47;3.73;;;;;;;21.44;63.16;100398.31;5056743;28;20226;-69
2021/07/28 09:22:20;;;;;;;7.70;4.37;;;;;;;21.40;64.48;100400.50;5073949;28;20202;-69
2021/07/28 09:25:21;;;;;;;4.40;4.00;;;;;;;21.59;62.87;100399.44;5074539;28;20191;-69
2021/07/28 09:27:51;;;;;;;6.47;3.97;;;;;;;21.45;62.03;100400.00;5074908;28;20159;-69
2021/07/28 09:30:24;;;;;;;7.90;3.70;;;;;;;21.67;60.87;100404.03;5074219;28;20175;-68
2021/07/28 09:33:03;;;;;;;4.80;3.97;;;;;;;21.22;62.72;100400.53;5074113;28;20170;-68
2021/07/28 09:35:46;;;;;;;4.63;3.80;;;;;;;21.12;63.75;100396.22;5072535;28;20289;-69
2021/07/28 09:38:12;;;;;;;4.00;3.60;;;;;;;20.88;63.28;100386.91;5073619;28;20543;-70
2021/07/28 09:40:37;;;;;;;7.77;3.70;;;;;;;20.91;61.85;100385.75;5073618;28;20182;-69
2021/07/28 09:43:03;;;;;;;3.67;3.37;;;;;;;20.68;61.62;100387.25;5072661;28;20579;-69
2021/07/28 09:45:29;;;;;;;5.07;3.47;;;;;;;21.05;61.57;100398.72;5055446;28;20686;-69
2021/07/28 09:47:54;;;;;;;5.07;3.97;;;;;;;21.64;61.32;100401.66;5073697;28;20185;-70
2021/07/28 09:50:19;;;;;;;6.13;4.83;;;;;;;21.94;59.71;100386.66;5073575;28;20177;-69
2021/07/28 09:52:45;;;;;;;5.13;3.87;;;;;;;21.58;61.44;100395.00;5072445;28;20175;-70
2021/07/28 09:55:24;;;;;;;4.77;4.27;;;;;;;21.55;62.58;100398.03;5073341;28;20205;-70
2021/07/28 09:57:54;;;;;;;6.60;3.53;;;;;;;21.62;62.90;100388.22;5072221;28;20174;-69
2021/07/28 10:00:19;;;;;;;4.83;4.17;;;;;;;21.44;63.48;100382.88;5072165;28;20229;-68
2021/07/28 10:02:45;;;;;;;5.47;3.90;;;;;;;21.90;61.68;100394.25;5073364;28;20179;-69
2021/07/28 10:05:11;;;;;;;5.37;4.10;;;;;;;21.99;61.75;100387.88;5073705;28;20194;-68
2021/07/28 10:07:36;;;;;;;4.83;3.90;;;;;;;22.11;60.04;100374.84;5072285;28;20183;-69
2021/07/28 10:10:03;;;;;;;6.47;3.83;;;;;;;21.97;60.77;100375.47;5072147;28;20627;-68
2021/07/28 10:12:29;;;;;;;8.67;4.60;;;;;;;22.29;59.95;100380.13;5073636;28;20178;-69
2021/07/28 10:14:56;;;;;;;5.50;3.60;;;;;;;22.56;57.89;100387.13;5101286;22;20240;-68
2021/07/28 10:17:21;;;;;;;4.13;3.67;;;;;;;22.92;57.72;100368.63;5074956;28;20178;-68
2021/07/28 10:19:50;;;;;;;8.57;3.97;;;;;;;22.80;57.21;100375.41;5092904;28;20255;-68
2021/07/28 10:22:16;;;;;;;5.67;3.50;;;;;;;22.64;58.47;100374.38;5091670;28;20642;-68
2021/07/28 10:24:43;;;;;;;4.00;3.60;;;;;;;22.71;57.83;100389.03;5091590;28;20198;-67
2021/07/28 10:27:09;;;;;;;4.97;3.90;;;;;;;22.83;58.74;100388.69;5091654;28;20201;-68
2021/07/28 10:29:34;;;;;;;4.80;3.57;;;;;;;23.18;57.34;100368.41;5092034;28;20259;-68
2021/07/28 10:31:59;;;;;;;4.47;3.73;;;;;;;23.32;57.81;100373.13;5091930;28;20263;-67
2021/07/28 10:34:32;;;;;;;6.03;3.97;;;;;;;23.67;56.47;100383.59;5091762;28;20198;-68
2021/07/28 10:37:05;;;;;;;3.87;3.47;;;;;;;23.47;57.25;100373.28;5091829;28;20257;-68
2021/07/28 10:39:37;;;;;;;4.03;3.60;;;;;;;23.17;56.59;100364.84;5093138;28;20228;-66
2021/07/28 10:42:04;;;;;;;4.33;3.70;;;;;;;23.17;56.01;100362.13;5093236;28;20182;-67
2021/07/28 10:44:30;;;;;;;4.73;3.50;;;;;;;23.18;56.36;100355.66;5092692;28;20253;-68
2021/07/28 10:46:56;;;;;;;3.80;3.50;;;;;;;24.09;54.53;100367.88;5093042;28;20182;-67
2021/07/28 10:49:36;;;;;;;4.10;3.70;;;;;;;23.98;54.33;100353.66;5091723;28;20348;-68
2021/07/28 10:52:03;;;;;;;5.07;3.40;;;;;;;24.30;53.07;100365.41;5093092;28;20217;-67
2021/07/28 10:54:50;;;;;;;4.50;3.77;;;;;;;24.57;51.83;100355.84;5093099;28;20243;-68
2021/07/28 10:57:39;;;;;;;7.50;6.40;;;;;;;24.77;51.40;100361.63;5094317;28;20170;-68
2021/07/28 11:00:09;;;;;;;3.63;3.33;;;;;;;23.08;55.20;100357.72;5095479;28;20197;-68
2021/07/28 11:02:52;;;;;;;3.60;3.27;;;;;;;23.88;53.34;100344.84;5078378;28;20178;-68
2021/07/28 11:05:19;;;;;;;3.60;3.30;;;;;;;25.11;50.75;100356.53;5096357;28;20267;-68
2021/07/28 11:08:06;;;;;;;4.53;3.10;;;;;;;24.59;51.45;100348.31;5095425;28;20650;-68
2021/07/28 11:10:38;;;;;;;6.67;3.50;;;;;;;25.30;49.80;100367.97;5096034;28;20170;-68
2021/07/28 11:13:08;;;;;;;4.13;2.97;;;;;;;27.51;43.48;100365.25;5096394;28;20175;-68
2021/07/28 11:15:34;;;;;;;3.20;2.90;;;;;;;26.44;46.55;100378.28;5077957;28;20201;-68
2021/07/28 11:17:59;;;;;;;4.87;3.07;;;;;;;27.07;45.04;100368.31;5078020;28;20185;-67
2021/07/28 11:20:30;;;;;;;4.90;3.60;;;;;;;26.14;47.44;100367.41;5096165;28;20206;-68